sensor_id;sensor_type;location;lat;lon;timestamp;pressure;altitude;pressure_sealevel;temperature;humidity
84020;BME280;74102;49.084;13.694;2024-02-26T00:02:05;91928.84;;;-0.54;72.54
84020;BME280;74102;49.084;13.694;2024-02-26T00:04:32;91923.84;;;-0.55;72.92
84020;BME280;74102;49.084;13.694;2024-02-26T00:06:57;91919.00;;;-0.58;73.44
84020;BME280;74102;49.084;13.694;2024-02-26T00:09:23;91920.22;;;-0.62;72.40
84020;BME280;74102;49.084;13.694;2024-02-26T00:11:48;91912.53;;;-0.62;72.79
84020;BME280;74102;49.084;13.694;2024-02-26T00:14:14;91911.19;;;-0.66;73.19
84020;BME280;74102;49.084;13.694;2024-02-26T00:16:42;91913.38;;;-0.71;73.36
84020;BME280;74102;49.084;13.694;2024-02-26T00:19:08;91900.69;;;-0.73;73.52
84020;BME280;74102;49.084;13.694;2024-02-26T00:21:33;91905.00;;;-0.73;73.96
84020;BME280;74102;49.084;13.694;2024-02-26T00:23:59;91909.59;;;-0.77;73.51
84020;BME280;74102;49.084;13.694;2024-02-26T00:26:24;91908.00;;;-0.78;73.15
84020;BME280;74102;49.084;13.694;2024-02-26T00:28:50;91903.69;;;-0.77;72.75
84020;BME280;74102;49.084;13.694;2024-02-26T00:31:15;91905.00;;;-0.73;73.25
84020;BME280;74102;49.084;13.694;2024-02-26T00:33:41;91901.50;;;-0.72;73.37
84020;BME280;74102;49.084;13.694;2024-02-26T00:36:06;91906.63;;;-0.72;73.23
84020;BME280;74102;49.084;13.694;2024-02-26T00:38:32;91903.41;;;-0.74;72.87
84020;BME280;74102;49.084;13.694;2024-02-26T00:40:57;91897.44;;;-0.75;72.92
84020;BME280;74102;49.084;13.694;2024-02-26T00:43:22;91904.47;;;-0.77;73.16
84020;BME280;74102;49.084;13.694;2024-02-26T00:45:48;91891.91;;;-0.80;73.31
84020;BME280;74102;49.084;13.694;2024-02-26T00:48:13;91890.44;;;-0.82;74.17
84020;BME280;74102;49.084;13.694;2024-02-26T00:50:39;91884.38;;;-0.81;73.17
84020;BME280;74102;49.084;13.694;2024-02-26T00:53:05;91890.16;;;-0.79;73.27
84020;BME280;74102;49.084;13.694;2024-02-26T00:55:30;91888.53;;;-0.80;72.83
84020;BME280;74102;49.084;13.694;2024-02-26T00:57:56;91881.81;;;-0.81;73.17
84020;BME280;74102;49.084;13.694;2024-02-26T01:00:21;91882.09;;;-0.84;73.59
84020;BME280;74102;49.084;13.694;2024-02-26T01:02:47;91883.19;;;-0.87;73.26
84020;BME280;74102;49.084;13.694;2024-02-26T01:05:13;91880.75;;;-0.88;73.23
84020;BME280;74102;49.084;13.694;2024-02-26T01:07:38;91875.66;;;-0.98;74.00
84020;BME280;74102;49.084;13.694;2024-02-26T01:10:05;91869.72;;;-0.98;73.70
84020;BME280;74102;49.084;13.694;2024-02-26T01:12:34;91862.94;;;-0.99;73.24
84020;BME280;74102;49.084;13.694;2024-02-26T01:15:02;91864.28;;;-0.95;73.41
84020;BME280;74102;49.084;13.694;2024-02-26T01:17:30;91862.69;;;-0.96;73.40
84020;BME280;74102;49.084;13.694;2024-02-26T01:19:56;91861.72;;;-0.95;73.66
84020;BME280;74102;49.084;13.694;2024-02-26T01:22:22;91858.09;;;-1.02;73.96
84020;BME280;74102;49.084;13.694;2024-02-26T01:24:47;91847.56;;;-0.99;73.43
84020;BME280;74102;49.084;13.694;2024-02-26T01:27:13;91835.69;;;-1.00;73.85
84020;BME280;74102;49.084;13.694;2024-02-26T01:29:40;91841.66;;;-1.00;73.78
84020;BME280;74102;49.084;13.694;2024-02-26T01:32:06;91839.88;;;-0.99;73.99
84020;BME280;74102;49.084;13.694;2024-02-26T01:34:31;91840.84;;;-1.00;73.55
84020;BME280;74102;49.084;13.694;2024-02-26T01:36:57;91836.66;;;-1.01;74.07
84020;BME280;74102;49.084;13.694;2024-02-26T01:39:22;91844.25;;;-1.10;74.07
84020;BME280;74102;49.084;13.694;2024-02-26T01:41:48;91837.88;;;-1.06;73.46
84020;BME280;74102;49.084;13.694;2024-02-26T01:44:13;91829.38;;;-1.06;73.81
84020;BME280;74102;49.084;13.694;2024-02-26T01:46:39;91834.34;;;-1.04;73.19
84020;BME280;74102;49.084;13.694;2024-02-26T01:49:06;91835.97;;;-1.03;73.63
84020;BME280;74102;49.084;13.694;2024-02-26T01:51:33;91832.44;;;-1.02;73.19
84020;BME280;74102;49.084;13.694;2024-02-26T01:53:59;91827.84;;;-0.99;73.17
84020;BME280;74102;49.084;13.694;2024-02-26T01:56:26;91834.31;;;-0.95;72.90
84020;BME280;74102;49.084;13.694;2024-02-26T01:58:56;91831.63;;;-0.93;73.31
84020;BME280;74102;49.084;13.694;2024-02-26T02:01:22;91844.31;;;-0.92;73.18
84020;BME280;74102;49.084;13.694;2024-02-26T02:03:50;91836.66;;;-1.01;72.78
84020;BME280;74102;49.084;13.694;2024-02-26T02:06:16;91843.56;;;-1.12;73.45
84020;BME280;74102;49.084;13.694;2024-02-26T02:08:41;91838.44;;;-1.12;74.28
84020;BME280;74102;49.084;13.694;2024-02-26T02:11:07;91848.41;;;-1.09;73.88
84020;BME280;74102;49.084;13.694;2024-02-26T02:13:33;91844.53;;;-1.13;73.38
84020;BME280;74102;49.084;13.694;2024-02-26T02:15:58;91845.75;;;-1.17;74.16
84020;BME280;74102;49.084;13.694;2024-02-26T02:18:24;91854.38;;;-1.18;73.85
84020;BME280;74102;49.084;13.694;2024-02-26T02:20:49;91853.56;;;-1.18;74.02
84020;BME280;74102;49.084;13.694;2024-02-26T02:23:14;91846.69;;;-1.18;73.82
84020;BME280;74102;49.084;13.694;2024-02-26T02:25:40;91850.91;;;-1.26;74.74
84020;BME280;74102;49.084;13.694;2024-02-26T02:28:05;91853.31;;;-1.25;73.99
84020;BME280;74102;49.084;13.694;2024-02-26T02:30:31;91854.41;;;-1.27;73.70
84020;BME280;74102;49.084;13.694;2024-02-26T02:32:58;91851.47;;;-1.32;74.00
84020;BME280;74102;49.084;13.694;2024-02-26T02:35:24;91849.31;;;-1.37;74.03
84020;BME280;74102;49.084;13.694;2024-02-26T02:37:52;91852.16;;;-1.40;73.73
84020;BME280;74102;49.084;13.694;2024-02-26T02:40:17;91847.59;;;-1.46;74.30
84020;BME280;74102;49.084;13.694;2024-02-26T02:42:42;91854.47;;;-1.46;73.84
84020;BME280;74102;49.084;13.694;2024-02-26T02:45:08;91857.44;;;-1.41;74.33
84020;BME280;74102;49.084;13.694;2024-02-26T02:47:36;91854.34;;;-1.45;74.26
84020;BME280;74102;49.084;13.694;2024-02-26T02:50:02;91856.63;;;-1.42;73.85
84020;BME280;74102;49.084;13.694;2024-02-26T02:52:27;91848.25;;;-1.44;73.80
84020;BME280;74102;49.084;13.694;2024-02-26T02:54:53;91842.84;;;-1.41;73.95
84020;BME280;74102;49.084;13.694;2024-02-26T02:57:18;91847.69;;;-1.38;73.63
84020;BME280;74102;49.084;13.694;2024-02-26T02:59:44;91853.50;;;-1.36;73.26
84020;BME280;74102;49.084;13.694;2024-02-26T03:02:09;91852.81;;;-1.38;73.47
84020;BME280;74102;49.084;13.694;2024-02-26T03:04:34;91854.72;;;-1.40;73.76
84020;BME280;74102;49.084;13.694;2024-02-26T03:07:00;91867.69;;;-1.41;74.07
84020;BME280;74102;49.084;13.694;2024-02-26T03:09:25;91866.72;;;-1.40;73.46
84020;BME280;74102;49.084;13.694;2024-02-26T03:11:51;91850.69;;;-1.42;74.14
84020;BME280;74102;49.084;13.694;2024-02-26T03:14:16;91853.25;;;-1.52;74.09
84020;BME280;74102;49.084;13.694;2024-02-26T03:16:41;91857.84;;;-1.55;74.37
84020;BME280;74102;49.084;13.694;2024-02-26T03:19:07;91849.34;;;-1.56;74.04
84020;BME280;74102;49.084;13.694;2024-02-26T03:21:32;91848.53;;;-1.56;74.09
84020;BME280;74102;49.084;13.694;2024-02-26T03:23:57;91833.16;;;-1.56;73.43
84020;BME280;74102;49.084;13.694;2024-02-26T03:26:23;91842.59;;;-1.57;73.74
84020;BME280;74102;49.084;13.694;2024-02-26T03:28:48;91848.41;;;-1.55;73.06
84020;BME280;74102;49.084;13.694;2024-02-26T03:31:14;91849.63;;;-1.59;73.35
84020;BME280;74102;49.084;13.694;2024-02-26T03:33:40;91849.09;;;-1.63;73.97
84020;BME280;74102;49.084;13.694;2024-02-26T03:36:05;91846.97;;;-1.67;73.04
84020;BME280;74102;49.084;13.694;2024-02-26T03:38:32;91842.78;;;-1.68;73.47
84020;BME280;74102;49.084;13.694;2024-02-26T03:40:58;91837.22;;;-1.64;72.77
84020;BME280;74102;49.084;13.694;2024-02-26T03:43:23;91842.88;;;-1.60;73.49
84020;BME280;74102;49.084;13.694;2024-02-26T03:45:49;91839.00;;;-1.64;72.50
84020;BME280;74102;49.084;13.694;2024-02-26T03:48:14;91834.41;;;-1.70;73.76
84020;BME280;74102;49.084;13.694;2024-02-26T03:50:39;91833.06;;;-1.74;73.49
84020;BME280;74102;49.084;13.694;2024-02-26T03:53:05;91834.94;;;-1.76;73.51
84020;BME280;74102;49.084;13.694;2024-02-26T03:55:30;91834.00;;;-1.75;73.38
84020;BME280;74102;49.084;13.694;2024-02-26T03:57:55;91842.34;;;-1.73;73.98
84020;BME280;74102;49.084;13.694;2024-02-26T04:00:21;91841.16;;;-1.69;73.25
84020;BME280;74102;49.084;13.694;2024-02-26T04:02:47;91844.41;;;-1.67;72.93
84020;BME280;74102;49.084;13.694;2024-02-26T04:05:13;91840.47;;;-1.71;73.76
84020;BME280;74102;49.084;13.694;2024-02-26T04:07:40;91834.28;;;-1.78;73.04
84020;BME280;74102;49.084;13.694;2024-02-26T04:10:12;91826.88;;;-1.81;73.43
84020;BME280;74102;49.084;13.694;2024-02-26T04:12:39;91831.34;;;-1.83;74.06
84020;BME280;74102;49.084;13.694;2024-02-26T04:15:07;91835.91;;;-1.77;73.04
84020;BME280;74102;49.084;13.694;2024-02-26T04:17:32;91836.19;;;-1.80;72.99
84020;BME280;74102;49.084;13.694;2024-02-26T04:19:58;91843.44;;;-1.85;73.43
84020;BME280;74102;49.084;13.694;2024-02-26T04:22:23;91844.00;;;-1.91;73.76
84020;BME280;74102;49.084;13.694;2024-02-26T04:24:49;91835.09;;;-1.87;74.02
84020;BME280;74102;49.084;13.694;2024-02-26T04:27:14;91844.25;;;-1.85;74.19
84020;BME280;74102;49.084;13.694;2024-02-26T04:29:39;91842.53;;;-1.84;74.24
84020;BME280;74102;49.084;13.694;2024-02-26T04:32:05;91849.66;;;-1.78;73.84
84020;BME280;74102;49.084;13.694;2024-02-26T04:34:30;91849.09;;;-1.72;73.30
84020;BME280;74102;49.084;13.694;2024-02-26T04:36:56;91848.56;;;-1.66;73.29
84020;BME280;74102;49.084;13.694;2024-02-26T04:39:21;91845.06;;;-1.65;72.71
84020;BME280;74102;49.084;13.694;2024-02-26T04:41:46;91845.06;;;-1.65;73.28
84020;BME280;74102;49.084;13.694;2024-02-26T04:44:12;91849.91;;;-1.72;73.58
84020;BME280;74102;49.084;13.694;2024-02-26T04:46:37;91844.25;;;-1.75;73.65
84020;BME280;74102;49.084;13.694;2024-02-26T04:49:02;91845.59;;;-1.71;73.15
84020;BME280;74102;49.084;13.694;2024-02-26T04:51:28;91841.69;;;-1.75;72.84
84020;BME280;74102;49.084;13.694;2024-02-26T04:53:53;91850.22;;;-1.84;73.14
84020;BME280;74102;49.084;13.694;2024-02-26T04:56:21;91853.31;;;-1.90;73.90
84020;BME280;74102;49.084;13.694;2024-02-26T04:58:46;91855.88;;;-1.90;73.61
84020;BME280;74102;49.084;13.694;2024-02-26T05:01:11;91861.53;;;-1.96;74.03
84020;BME280;74102;49.084;13.694;2024-02-26T05:03:37;91867.22;;;-1.93;73.99
84020;BME280;74102;49.084;13.694;2024-02-26T05:06:02;91859.38;;;-1.91;74.23
84020;BME280;74102;49.084;13.694;2024-02-26T05:08:28;91857.47;;;-1.89;73.91
84020;BME280;74102;49.084;13.694;2024-02-26T05:10:54;91855.88;;;-1.90;73.04
84020;BME280;74102;49.084;13.694;2024-02-26T05:13:19;91852.34;;;-1.89;73.25
84020;BME280;74102;49.084;13.694;2024-02-26T05:15:44;91853.31;;;-1.90;73.84
84020;BME280;74102;49.084;13.694;2024-02-26T05:18:12;91847.50;;;-1.92;73.36
84020;BME280;74102;49.084;13.694;2024-02-26T05:20:37;91845.47;;;-1.98;73.41
84020;BME280;74102;49.084;13.694;2024-02-26T05:23:03;91841.31;;;-2.09;74.48
84020;BME280;74102;49.084;13.694;2024-02-26T05:25:29;91843.75;;;-2.07;73.95
84020;BME280;74102;49.084;13.694;2024-02-26T05:27:54;91836.72;;;-2.05;73.65
84020;BME280;74102;49.084;13.694;2024-02-26T05:30:19;91836.47;;;-2.02;73.62
84020;BME280;74102;49.084;13.694;2024-02-26T05:32:45;91836.97;;;-1.99;73.15
84020;BME280;74102;49.084;13.694;2024-02-26T05:35:11;91825.97;;;-1.99;72.88
84020;BME280;74102;49.084;13.694;2024-02-26T05:37:36;91827.00;;;-2.02;74.05
84020;BME280;74102;49.084;13.694;2024-02-26T05:40:01;91824.59;;;-2.03;73.80
84020;BME280;74102;49.084;13.694;2024-02-26T05:42:29;91838.06;;;-2.01;73.82
84020;BME280;74102;49.084;13.694;2024-02-26T05:44:55;91843.19;;;-2.01;74.06
84020;BME280;74102;49.084;13.694;2024-02-26T05:47:20;91836.47;;;-2.02;73.41
84020;BME280;74102;49.084;13.694;2024-02-26T05:49:45;91829.84;;;-2.05;73.59
84020;BME280;74102;49.084;13.694;2024-02-26T05:52:11;91834.03;;;-2.04;73.19
84020;BME280;74102;49.084;13.694;2024-02-26T05:54:36;91832.13;;;-2.02;73.31
84020;BME280;74102;49.084;13.694;2024-02-26T05:57:01;91837.69;;;-2.06;73.67
84020;BME280;74102;49.084;13.694;2024-02-26T05:59:27;91847.22;;;-2.08;73.65
84020;BME280;74102;49.084;13.694;2024-02-26T06:01:52;91852.22;;;-2.07;73.55
84020;BME280;74102;49.084;13.694;2024-02-26T06:04:17;91854.13;;;-1.99;74.03
84020;BME280;74102;49.084;13.694;2024-02-26T06:06:46;91852.63;;;-1.92;73.69
84020;BME280;74102;49.084;13.694;2024-02-26T06:09:11;91840.50;;;-1.90;73.89
84020;BME280;74102;49.084;13.694;2024-02-26T06:11:37;91851.94;;;-1.85;73.96
84020;BME280;74102;49.084;13.694;2024-02-26T06:14:03;91851.56;;;-1.80;74.02
84020;BME280;74102;49.084;13.694;2024-02-26T06:16:28;91858.00;;;-1.76;73.13
84020;BME280;74102;49.084;13.694;2024-02-26T06:18:53;91862.84;;;-1.73;74.42
84020;BME280;74102;49.084;13.694;2024-02-26T06:21:19;91870.16;;;-1.69;73.69
84020;BME280;74102;49.084;13.694;2024-02-26T06:23:44;91857.59;;;-1.62;74.28
84020;BME280;74102;49.084;13.694;2024-02-26T06:26:09;91863.09;;;-1.57;73.90
84020;BME280;74102;49.084;13.694;2024-02-26T06:28:35;91865.00;;;-1.49;74.03
84020;BME280;74102;49.084;13.694;2024-02-26T06:31:01;91873.88;;;-1.44;73.37
84020;BME280;74102;49.084;13.694;2024-02-26T06:33:27;91862.03;;;-1.45;73.54
84020;BME280;74102;49.084;13.694;2024-02-26T06:35:52;91860.41;;;-1.46;74.58
84020;BME280;74102;49.084;13.694;2024-02-26T06:38:17;91869.03;;;-1.47;74.14
84020;BME280;74102;49.084;13.694;2024-02-26T06:40:44;91870.94;;;-1.49;74.59
84020;BME280;74102;49.084;13.694;2024-02-26T06:43:09;91863.63;;;-1.44;74.32
84020;BME280;74102;49.084;13.694;2024-02-26T06:45:35;91865.34;;;-1.35;73.65
84020;BME280;74102;49.084;13.694;2024-02-26T06:48:00;91874.81;;;-1.26;74.70
84020;BME280;74102;49.084;13.694;2024-02-26T06:50:26;91871.69;;;-1.20;74.11
84020;BME280;74102;49.084;13.694;2024-02-26T06:52:51;91873.41;;;-1.11;74.32
84020;BME280;74102;49.084;13.694;2024-02-26T06:55:16;91879.31;;;-1.00;74.02
84020;BME280;74102;49.084;13.694;2024-02-26T06:57:42;91876.56;;;-0.89;73.76
84020;BME280;74102;49.084;13.694;2024-02-26T07:00:08;91882.63;;;-0.81;73.65
84020;BME280;74102;49.084;13.694;2024-02-26T07:02:33;91879.31;;;-0.73;74.12
84020;BME280;74102;49.084;13.694;2024-02-26T07:04:59;91882.00;;;-0.65;74.23
84020;BME280;74102;49.084;13.694;2024-02-26T07:07:25;91873.28;;;-0.55;73.82
84020;BME280;74102;49.084;13.694;2024-02-26T07:09:50;91879.34;;;-0.46;73.73
84020;BME280;74102;49.084;13.694;2024-02-26T07:12:15;91876.56;;;-0.35;74.43
84020;BME280;74102;49.084;13.694;2024-02-26T07:14:41;91878.13;;;-0.24;74.55
84020;BME280;74102;49.084;13.694;2024-02-26T07:17:07;91877.41;;;-0.17;74.45
84020;BME280;74102;49.084;13.694;2024-02-26T07:19:33;91881.16;;;-0.11;74.13
84020;BME280;74102;49.084;13.694;2024-02-26T07:21:58;91878.16;;;-0.07;74.57
84020;BME280;74102;49.084;13.694;2024-02-26T07:24:26;91889.75;;;-0.03;75.11
84020;BME280;74102;49.084;13.694;2024-02-26T07:26:51;91891.91;;;0.02;75.71
84020;BME280;74102;49.084;13.694;2024-02-26T07:29:16;91893.59;;;0.11;75.28
84020;BME280;74102;49.084;13.694;2024-02-26T07:31:42;91888.38;;;0.21;74.85
84020;BME280;74102;49.084;13.694;2024-02-26T07:34:07;91894.91;;;0.33;75.09
84020;BME280;74102;49.084;13.694;2024-02-26T07:36:33;91902.53;;;0.42;75.15
84020;BME280;74102;49.084;13.694;2024-02-26T07:38:58;91891.53;;;0.50;75.85
84020;BME280;74102;49.084;13.694;2024-02-26T07:41:24;91894.16;;;0.58;75.47
84020;BME280;74102;49.084;13.694;2024-02-26T07:43:49;91888.13;;;0.67;75.48
84020;BME280;74102;49.084;13.694;2024-02-26T07:46:14;91887.22;;;0.76;75.42
84020;BME280;74102;49.084;13.694;2024-02-26T07:48:40;91879.56;;;0.84;76.52
84020;BME280;74102;49.084;13.694;2024-02-26T07:51:06;91882.19;;;0.92;75.86
84020;BME280;74102;49.084;13.694;2024-02-26T07:53:31;91887.25;;;1.02;75.70
84020;BME280;74102;49.084;13.694;2024-02-26T07:55:57;91889.72;;;1.12;75.92
84020;BME280;74102;49.084;13.694;2024-02-26T07:58:23;91887.34;;;1.18;75.42
84020;BME280;74102;49.084;13.694;2024-02-26T08:00:49;91889.44;;;1.23;74.61
84020;BME280;74102;49.084;13.694;2024-02-26T08:03:14;91893.50;;;1.25;74.60
84020;BME280;74102;49.084;13.694;2024-02-26T08:05:41;91909.41;;;1.29;74.79
84020;BME280;74102;49.084;13.694;2024-02-26T08:08:08;91903.81;;;1.33;74.59
84020;BME280;74102;49.084;13.694;2024-02-26T08:10:33;91901.44;;;1.40;74.28
84020;BME280;74102;49.084;13.694;2024-02-26T08:12:58;91902.44;;;1.47;73.32
84020;BME280;74102;49.084;13.694;2024-02-26T08:15:31;91913.75;;;1.54;73.21
84020;BME280;74102;49.084;13.694;2024-02-26T08:17:56;91909.59;;;1.61;72.69
84020;BME280;74102;49.084;13.694;2024-02-26T08:20:22;91913.03;;;1.70;72.67
84020;BME280;74102;49.084;13.694;2024-02-26T08:22:47;91908.06;;;1.76;71.92
84020;BME280;74102;49.084;13.694;2024-02-26T08:25:12;91911.28;;;1.78;71.66
84020;BME280;74102;49.084;13.694;2024-02-26T08:27:38;91905.50;;;1.84;71.67
84020;BME280;74102;49.084;13.694;2024-02-26T08:30:04;91898.91;;;1.90;71.20
84020;BME280;74102;49.084;13.694;2024-02-26T08:32:29;91912.63;;;1.98;71.74
84020;BME280;74102;49.084;13.694;2024-02-26T08:34:55;91912.50;;;2.08;71.91
84020;BME280;74102;49.084;13.694;2024-02-26T08:37:20;91910.75;;;2.17;72.23
84020;BME280;74102;49.084;13.694;2024-02-26T08:39:45;91904.00;;;2.24;72.44
84020;BME280;74102;49.084;13.694;2024-02-26T08:42:11;91918.66;;;2.31;72.65
84020;BME280;74102;49.084;13.694;2024-02-26T08:44:36;91906.94;;;2.37;72.49
84020;BME280;74102;49.084;13.694;2024-02-26T08:47:02;91918.56;;;2.41;72.41
84020;BME280;74102;49.084;13.694;2024-02-26T08:49:27;91925.66;;;2.47;72.01
84020;BME280;74102;49.084;13.694;2024-02-26T08:51:53;91930.00;;;2.54;71.24
84020;BME280;74102;49.084;13.694;2024-02-26T08:54:18;91933.75;;;2.60;70.94
84020;BME280;74102;49.084;13.694;2024-02-26T08:56:43;91927.94;;;2.66;70.54
84020;BME280;74102;49.084;13.694;2024-02-26T08:59:09;91925.34;;;2.74;71.03
84020;BME280;74102;49.084;13.694;2024-02-26T09:01:34;91926.97;;;2.75;71.20
84020;BME280;74102;49.084;13.694;2024-02-26T09:03:59;91928.56;;;2.76;71.04
84020;BME280;74102;49.084;13.694;2024-02-26T09:06:25;91934.53;;;2.77;70.83
84020;BME280;74102;49.084;13.694;2024-02-26T09:08:50;91933.44;;;2.79;70.56
84020;BME280;74102;49.084;13.694;2024-02-26T09:11:16;91937.47;;;2.82;71.00
84020;BME280;74102;49.084;13.694;2024-02-26T09:13:41;91937.28;;;2.91;70.90
84020;BME280;74102;49.084;13.694;2024-02-26T09:16:07;91944.72;;;2.94;70.71
84020;BME280;74102;49.084;13.694;2024-02-26T09:18:33;91947.28;;;3.02;71.02
84020;BME280;74102;49.084;13.694;2024-02-26T09:20:58;91938.75;;;3.10;71.12
84020;BME280;74102;49.084;13.694;2024-02-26T09:23:23;91932.59;;;3.19;70.93
84020;BME280;74102;49.084;13.694;2024-02-26T09:25:49;91937.78;;;3.27;70.79
84020;BME280;74102;49.084;13.694;2024-02-26T09:28:14;91942.28;;;3.33;71.00
84020;BME280;74102;49.084;13.694;2024-02-26T09:30:43;91945.66;;;3.42;71.20
84020;BME280;74102;49.084;13.694;2024-02-26T09:33:08;91948.53;;;3.47;70.83
84020;BME280;74102;49.084;13.694;2024-02-26T09:35:33;91942.41;;;3.56;71.29
84020;BME280;74102;49.084;13.694;2024-02-26T09:37:59;91948.69;;;3.61;71.19
84020;BME280;74102;49.084;13.694;2024-02-26T09:40:24;91948.97;;;3.66;71.09
84020;BME280;74102;49.084;13.694;2024-02-26T09:42:53;91946.88;;;3.70;71.19
84020;BME280;74102;49.084;13.694;2024-02-26T09:45:22;91957.53;;;3.75;70.23
84020;BME280;74102;49.084;13.694;2024-02-26T09:47:50;91955.91;;;3.74;70.59
84020;BME280;74102;49.084;13.694;2024-02-26T09:50:17;91959.63;;;3.80;69.67
84020;BME280;74102;49.084;13.694;2024-02-26T09:52:43;91957.22;;;3.78;68.35
84020;BME280;74102;49.084;13.694;2024-02-26T09:55:09;91954.63;;;3.78;68.76
84020;BME280;74102;49.084;13.694;2024-02-26T09:57:36;91957.16;;;3.86;69.02
84020;BME280;74102;49.084;13.694;2024-02-26T10:00:03;91953.25;;;3.98;68.62
84020;BME280;74102;49.084;13.694;2024-02-26T10:02:33;91958.13;;;4.01;68.28
84020;BME280;74102;49.084;13.694;2024-02-26T10:05:02;91956.81;;;3.97;68.10
84020;BME280;74102;49.084;13.694;2024-02-26T10:07:30;91968.47;;;4.01;68.88
84020;BME280;74102;49.084;13.694;2024-02-26T10:09:56;91971.81;;;4.10;68.56
84020;BME280;74102;49.084;13.694;2024-02-26T10:12:21;91971.63;;;4.19;68.90
84020;BME280;74102;49.084;13.694;2024-02-26T10:14:47;91984.16;;;4.31;68.75
84020;BME280;74102;49.084;13.694;2024-02-26T10:17:12;91986.72;;;4.39;68.63
84020;BME280;74102;49.084;13.694;2024-02-26T10:19:38;91987.69;;;4.46;67.27
84020;BME280;74102;49.084;13.694;2024-02-26T10:22:03;91979.38;;;4.50;67.18
84020;BME280;74102;49.084;13.694;2024-02-26T10:24:30;91981.47;;;4.55;67.29
84020;BME280;74102;49.084;13.694;2024-02-26T10:26:56;91986.31;;;4.58;67.31
84020;BME280;74102;49.084;13.694;2024-02-26T10:29:23;91985.97;;;4.61;67.20
84020;BME280;74102;49.084;13.694;2024-02-26T10:31:50;91985.28;;;4.67;67.60
84020;BME280;74102;49.084;13.694;2024-02-26T10:34:16;91981.56;;;4.69;66.69
84020;BME280;74102;49.084;13.694;2024-02-26T10:36:42;91972.53;;;4.65;67.48
84020;BME280;74102;49.084;13.694;2024-02-26T10:39:07;91974.94;;;4.67;67.60
84020;BME280;74102;49.084;13.694;2024-02-26T10:41:33;91981.06;;;4.74;67.32
84020;BME280;74102;49.084;13.694;2024-02-26T10:43:59;91976.50;;;4.76;67.82
84020;BME280;74102;49.084;13.694;2024-02-26T10:46:28;91980.16;;;4.90;67.62
84020;BME280;74102;49.084;13.694;2024-02-26T10:48:53;91985.84;;;5.08;67.08
84020;BME280;74102;49.084;13.694;2024-02-26T10:51:29;91980.50;;;5.09;67.20
84020;BME280;74102;49.084;13.694;2024-02-26T10:53:56;91983.09;;;5.09;66.37
84020;BME280;74102;49.084;13.694;2024-02-26T10:56:27;91980.16;;;5.12;66.32
84020;BME280;74102;49.084;13.694;2024-02-26T10:58:55;91968.84;;;5.05;64.89
84020;BME280;74102;49.084;13.694;2024-02-26T11:01:21;91971.19;;;5.00;65.07
84020;BME280;74102;49.084;13.694;2024-02-26T11:03:52;91968.94;;;4.97;65.73
84020;BME280;74102;49.084;13.694;2024-02-26T11:06:18;91971.53;;;4.97;66.11
84020;BME280;74102;49.084;13.694;2024-02-26T11:08:48;91963.09;;;4.95;66.55
84020;BME280;74102;49.084;13.694;2024-02-26T11:11:14;91972.16;;;4.99;66.79
84020;BME280;74102;49.084;13.694;2024-02-26T11:13:40;91964.03;;;5.02;67.50
84020;BME280;74102;49.084;13.694;2024-02-26T11:16:10;91957.53;;;5.06;66.32
84020;BME280;74102;49.084;13.694;2024-02-26T11:18:37;91960.81;;;5.00;66.21
84020;BME280;74102;49.084;13.694;2024-02-26T11:21:05;91955.91;;;5.05;65.97
84020;BME280;74102;49.084;13.694;2024-02-26T11:23:33;91958.03;;;5.02;66.20
84020;BME280;74102;49.084;13.694;2024-02-26T11:26:04;91963.78;;;5.12;66.20
84020;BME280;74102;49.084;13.694;2024-02-26T11:28:32;91961.59;;;5.23;65.73
84020;BME280;74102;49.084;13.694;2024-02-26T11:30:59;91969.66;;;5.28;64.76
84020;BME280;74102;49.084;13.694;2024-02-26T11:33:26;91963.41;;;5.38;65.54
84020;BME280;74102;49.084;13.694;2024-02-26T11:35:53;91960.78;;;5.46;65.92
84020;BME280;74102;49.084;13.694;2024-02-26T11:38:20;91976.25;;;5.54;65.44
84020;BME280;74102;49.084;13.694;2024-02-26T11:40:50;91972.31;;;5.58;65.75
84020;BME280;74102;49.084;13.694;2024-02-26T11:43:15;91969.38;;;5.61;65.76
84020;BME280;74102;49.084;13.694;2024-02-26T11:48:13;91965.81;;;5.62;65.01
84020;BME280;74102;49.084;13.694;2024-02-26T11:50:41;91966.78;;;5.61;64.75
84020;BME280;74102;49.084;13.694;2024-02-26T11:55:48;91970.53;;;5.58;64.87
84020;BME280;74102;49.084;13.694;2024-02-26T11:58:33;91974.84;;;5.66;64.82
84020;BME280;74102;49.084;13.694;2024-02-26T12:00:58;91969.59;;;5.74;65.25
84020;BME280;74102;49.084;13.694;2024-02-26T12:03:24;91977.63;;;5.64;65.74
84020;BME280;74102;49.084;13.694;2024-02-26T12:05:49;91986.78;;;5.52;66.14
84020;BME280;74102;49.084;13.694;2024-02-26T12:08:16;91986.25;;;5.57;66.05
84020;BME280;74102;49.084;13.694;2024-02-26T12:10:45;91992.78;;;5.53;66.21
84020;BME280;74102;49.084;13.694;2024-02-26T12:13:12;91992.84;;;5.45;66.42
84020;BME280;74102;49.084;13.694;2024-02-26T12:15:43;91990.63;;;5.42;66.86
84020;BME280;74102;49.084;13.694;2024-02-26T12:18:10;91991.31;;;5.36;67.14
84020;BME280;74102;49.084;13.694;2024-02-26T12:20:38;91988.16;;;5.25;68.13
84020;BME280;74102;49.084;13.694;2024-02-26T12:23:04;91992.38;;;5.26;67.63
84020;BME280;74102;49.084;13.694;2024-02-26T12:25:30;91990.03;;;5.31;67.48
84020;BME280;74102;49.084;13.694;2024-02-26T12:27:56;91994.53;;;5.38;67.88
84020;BME280;74102;49.084;13.694;2024-02-26T12:30:23;91986.06;;;5.44;67.58
84020;BME280;74102;49.084;13.694;2024-02-26T12:32:50;91991.19;;;5.52;67.48
84020;BME280;74102;49.084;13.694;2024-02-26T12:35:16;91983.88;;;5.55;67.21
84020;BME280;74102;49.084;13.694;2024-02-26T12:37:43;91979.75;;;5.61;67.40
84020;BME280;74102;49.084;13.694;2024-02-26T12:40:10;91984.47;;;5.57;66.84
84020;BME280;74102;49.084;13.694;2024-02-26T12:42:36;91980.28;;;5.56;66.85
84020;BME280;74102;49.084;13.694;2024-02-26T12:45:09;91996.38;;;5.52;67.21
84020;BME280;74102;49.084;13.694;2024-02-26T12:47:38;91995.91;;;5.48;67.37
84020;BME280;74102;49.084;13.694;2024-02-26T12:50:05;92005.13;;;5.51;67.40
84020;BME280;74102;49.084;13.694;2024-02-26T12:52:36;91994.63;;;5.44;67.85
84020;BME280;74102;49.084;13.694;2024-02-26T12:55:03;91997.34;;;5.51;67.86